Time;durP1;ratioP1;P1;durP2;ratioP2;P2;SDS_P1;SDS_P2;PMS_P1;PMS_P2;Temp;Humidity;BMP_temperature;BMP_pressure;BME280_temperature;BME280_humidity;BME280_pressure;Samples;Min_cycle;Max_cycle;Signal;HPM_P1;HPM_P2
2021/12/29 00:00:21;;;;;;;2.45;2.20;;;;;;;16.59;54.75;99916.44;5094826;28;20039;-58
2021/12/29 00:02:46;;;;;;;12.27;3.40;;;;;;;16.58;53.55;99936.38;5094837;28;20130;-59
2021/12/29 00:05:12;;;;;;;5.65;2.97;;;;;;;16.59;53.97;99946.19;5076656;28;20036;-58
2021/12/29 00:07:38;;;;;;;4.38;2.60;;;;;;;16.58;55.00;99943.69;5076339;28;20115;-57
2021/12/29 00:10:04;;;;;;;7.85;3.35;;;;;;;16.56;54.38;99949.25;5095161;28;20546;-58
2021/12/29 00:12:30;;;;;;;6.05;2.58;;;;;;;16.57;54.73;99950.94;5076637;28;20024;-58
2021/12/29 00:14:56;;;;;;;4.45;2.88;;;;;;;16.56;54.52;99957.38;5094549;28;20034;-58
2021/12/29 00:17:22;;;;;;;5.65;2.45;;;;;;;16.54;54.17;99954.03;5056045;28;20504;-58
2021/12/29 00:19:47;;;;;;;8.57;3.03;;;;;;;16.49;54.51;99951.03;5093024;28;20091;-58
2021/12/29 00:22:13;;;;;;;4.80;2.88;;;;;;;16.49;54.84;99953.72;5074994;28;20020;-58
2021/12/29 00:24:38;;;;;;;3.60;2.67;;;;;;;16.48;54.28;99957.44;5092985;28;20027;-58
2021/12/29 00:27:05;;;;;;;5.55;3.08;;;;;;;16.48;54.42;99970.97;5092667;28;20024;-58
2021/12/29 00:29:31;;;;;;;4.15;2.33;;;;;;;16.47;54.45;99982.78;5092987;28;20040;-57
2021/12/29 00:31:56;;;;;;;6.05;2.65;;;;;;;16.47;54.64;99995.50;5092951;28;20031;-58
2021/12/29 00:34:22;;;;;;;4.80;2.78;;;;;;;16.45;54.47;100002.94;5092869;28;20065;-58
2021/12/29 00:36:47;;;;;;;3.72;2.90;;;;;;;16.43;54.28;100008.53;5092757;28;20050;-58
2021/12/29 00:39:13;;;;;;;5.05;3.20;;;;;;;16.43;55.64;100030.16;5092822;28;20392;-58
2021/12/29 00:41:38;;;;;;;3.33;2.17;;;;;;;16.41;54.37;100025.97;5092758;28;20476;-58
2021/12/29 00:44:04;;;;;;;5.95;2.95;;;;;;;16.41;55.02;100026.81;5092979;28;20034;-58
2021/12/29 00:46:29;;;;;;;3.60;2.83;;;;;;;16.38;55.68;100021.78;5093031;28;20111;-57
2021/12/29 00:48:54;;;;;;;5.43;2.88;;;;;;;16.37;53.89;100027.34;5092702;28;20567;-58
2021/12/29 00:51:20;;;;;;;3.97;2.47;;;;;;;16.37;55.77;100030.06;5092844;28;20077;-58
2021/12/29 00:53:45;;;;;;;5.90;2.80;;;;;;;16.34;54.88;100028.56;5092738;28;20035;-58
2021/12/29 00:56:11;;;;;;;6.00;2.67;;;;;;;16.35;54.50;100032.13;5057941;28;20032;-58
2021/12/29 00:58:36;;;;;;;3.90;2.42;;;;;;;16.30;55.32;100038.09;5093248;28;20428;-58
2021/12/29 01:01:03;;;;;;;5.25;2.78;;;;;;;16.33;55.15;100045.84;5092725;28;20365;-58
2021/12/29 01:03:29;;;;;;;10.75;2.55;;;;;;;16.33;54.30;100057.47;5092797;28;20476;-58
2021/12/29 01:05:54;;;;;;;5.55;2.55;;;;;;;16.36;54.90;100066.25;5092502;28;20112;-58
2021/12/29 01:08:20;;;;;;;9.07;3.00;;;;;;;16.36;55.61;100072.47;5074403;28;20047;-56
2021/12/29 01:10:46;;;;;;;4.38;2.42;;;;;;;16.39;54.12;100082.09;5075197;28;20028;-55
2021/12/29 01:13:14;;;;;;;3.55;2.42;;;;;;;16.39;55.26;100077.50;5092335;28;20035;-58
2021/12/29 01:18:27;;;;;;;3.40;2.35;;;;;;;16.37;54.04;100073.31;5090584;28;20039;-58
2021/12/29 01:20:53;;;;;;;5.70;2.88;;;;;;;16.39;53.87;100077.50;5096728;28;20023;-58
2021/12/29 01:23:18;;;;;;;3.35;2.40;;;;;;;16.41;53.93;100080.03;5096490;28;20032;-58
2021/12/29 01:25:44;;;;;;;4.13;2.70;;;;;;;16.42;55.04;100090.66;5078602;28;20424;-59
2021/12/29 01:28:09;;;;;;;6.43;2.60;;;;;;;16.42;53.71;100098.75;5077938;28;20048;-58
2021/12/29 01:30:34;;;;;;;12.15;3.42;;;;;;;16.43;55.09;100100.44;5078261;28;20028;-60
2021/12/29 01:33:05;;;;;;;4.65;2.45;;;;;;;16.44;55.09;100107.53;5096209;28;20381;-58
2021/12/29 01:35:31;;;;;;;4.85;1.92;;;;;;;16.44;54.21;100123.78;5096276;28;20540;-57
2021/12/29 01:37:56;;;;;;;4.57;2.38;;;;;;;16.45;54.99;100135.41;5077760;28;20040;-58
2021/12/29 01:40:22;;;;;;;4.38;2.25;;;;;;;16.44;54.87;100123.78;5102846;28;20055;-58
2021/12/29 01:42:47;;;;;;;4.65;2.75;;;;;;;16.46;53.85;100137.94;5096001;28;20055;-58
2021/12/29 01:45:13;;;;;;;3.13;2.30;;;;;;;16.50;54.29;100133.81;5061271;28;20031;-58
2021/12/29 01:47:38;;;;;;;2.92;2.10;;;;;;;16.50;54.08;100150.03;5095921;28;20028;-58
2021/12/29 01:50:05;;;;;;;3.55;2.55;;;;;;;16.53;54.16;100159.66;5095816;28;20116;-58
2021/12/29 01:52:37;;;;;;;3.40;2.40;;;;;;;16.51;54.88;100161.69;5095541;28;20028;-58
2021/12/29 01:55:05;;;;;;;5.80;2.95;;;;;;;16.50;53.73;100158.16;5095810;28;20028;-58
2021/12/29 01:57:31;;;;;;;4.07;2.97;;;;;;;16.53;54.71;100170.47;5095693;28;20019;-58
2021/12/29 01:59:56;;;;;;;6.05;2.70;;;;;;;16.53;53.97;100195.66;5092838;28;20111;-58
2021/12/29 02:02:21;;;;;;;3.35;2.53;;;;;;;16.53;54.70;100187.56;5095150;28;20031;-58
2021/12/29 02:04:47;;;;;;;2.40;2.13;;;;;;;16.55;54.08;100190.09;5095296;28;20031;-59
2021/12/29 02:07:13;;;;;;;5.95;2.83;;;;;;;16.57;54.61;100185.34;5060727;28;20024;-58
2021/12/29 02:09:39;;;;;;;2.58;2.35;;;;;;;16.53;54.15;100187.56;5077443;28;20035;-58
2021/12/29 02:12:05;;;;;;;3.63;2.13;;;;;;;16.52;53.44;100191.28;5077238;28;20023;-59
2021/12/29 02:14:31;;;;;;;5.00;2.80;;;;;;;16.52;54.36;100191.28;5095339;28;20020;-58
2021/12/29 02:16:56;;;;;;;6.03;2.78;;;;;;;16.52;53.65;100191.28;5095874;28;20067;-58
2021/12/29 02:19:24;;;;;;;5.03;3.05;;;;;;;16.50;53.41;100193.31;5095834;28;20048;-58
2021/12/29 02:22:07;;;;;;;4.47;2.95;;;;;;;16.47;53.69;100185.56;5094935;28;20533;-58
2021/12/29 02:24:42;;;;;;;7.18;2.50;;;;;;;16.43;53.94;100195.06;5095847;28;20111;-58
2021/12/29 02:27:10;;;;;;;8.60;2.55;;;;;;;16.41;54.11;100180.91;5095730;28;20036;-58
2021/12/29 02:29:37;;;;;;;3.88;2.95;;;;;;;16.38;54.61;100193.94;5096210;28;20116;-58
2021/12/29 02:32:02;;;;;;;7.03;3.55;;;;;;;16.36;54.40;100194.09;5095882;28;20383;-58
2021/12/29 02:34:28;;;;;;;7.35;2.78;;;;;;;16.37;53.68;100198.50;5096086;28;20111;-58
2021/12/29 02:36:54;;;;;;;3.67;2.55;;;;;;;16.33;54.90;100199.91;5095977;28;20020;-58
2021/12/29 02:39:21;;;;;;;7.07;3.22;;;;;;;16.35;55.11;100205.94;5095673;28;20065;-59
2021/12/29 02:41:51;;;;;;;8.60;2.58;;;;;;;16.34;53.97;100198.84;5095912;28;20020;-59
2021/12/29 02:44:23;;;;;;;4.72;3.00;;;;;;;16.38;54.85;100200.19;5077954;28;20381;-58
2021/12/29 02:46:49;;;;;;;5.47;2.67;;;;;;;16.40;54.95;100203.53;5095958;28;20027;-58
2021/12/29 02:49:14;;;;;;;9.15;3.80;;;;;;;16.41;55.16;100205.22;5096444;28;20059;-58
2021/12/29 02:51:40;;;;;;;6.47;2.75;;;;;;;16.43;54.04;100207.75;5096722;28;20381;-59
2021/12/29 02:54:05;;;;;;;13.68;3.00;;;;;;;16.43;54.48;100219.41;5096618;28;20483;-59
2021/12/29 02:56:31;;;;;;;5.88;2.97;;;;;;;16.42;54.98;100225.81;5061235;28;20020;-59
2021/12/29 02:58:57;;;;;;;4.82;2.88;;;;;;;16.37;53.98;100225.53;5096186;28;20024;-58
2021/12/29 03:01:24;;;;;;;5.40;2.58;;;;;;;16.36;53.47;100228.41;5096241;28;20035;-58
2021/12/29 03:03:49;;;;;;;12.95;3.58;;;;;;;16.38;54.59;100238.03;5077874;28;20042;-58
2021/12/29 03:06:15;;;;;;;4.90;2.30;;;;;;;16.36;54.72;100234.66;5096167;28;20023;-58
2021/12/29 03:08:41;;;;;;;5.40;2.80;;;;;;;16.37;54.47;100239.03;5096035;28;20392;-58
2021/12/29 03:11:07;;;;;;;7.28;3.17;;;;;;;16.35;53.59;100241.09;5095758;28;20020;-58
2021/12/29 03:13:35;;;;;;;5.18;2.83;;;;;;;16.35;54.35;100232.97;5095821;28;20106;-58
2021/12/29 03:16:01;;;;;;;4.00;2.50;;;;;;;16.35;53.74;100238.38;5095908;28;20043;-58
2021/12/29 03:18:26;;;;;;;4.75;2.45;;;;;;;16.35;53.62;100245.66;5096086;28;20465;-58
2021/12/29 03:20:52;;;;;;;5.32;2.80;;;;;;;16.33;53.25;100245.00;5061002;28;20059;-58
2021/12/29 03:23:18;;;;;;;9.05;3.28;;;;;;;16.31;54.23;100248.72;5077622;28;20024;-58
2021/12/29 03:25:47;;;;;;;4.45;2.17;;;;;;;16.33;53.23;100246.66;5095578;28;20048;-58
2021/12/29 03:28:16;;;;;;;4.43;2.55;;;;;;;16.33;54.26;100250.41;5095698;28;20061;-58
2021/12/29 03:30:43;;;;;;;6.05;2.25;;;;;;;16.28;54.31;100259.88;5095481;28;20024;-58
2021/12/29 03:33:09;;;;;;;6.07;2.55;;;;;;;16.27;54.84;100257.38;5095614;28;20020;-58
2021/12/29 03:35:48;;;;;;;7.57;2.38;;;;;;;16.26;54.50;100264.63;5095715;28;20078;-57
2021/12/29 03:38:16;;;;;;;3.33;2.35;;;;;;;16.27;54.24;100266.28;5095704;28;20058;-58
2021/12/29 03:40:42;;;;;;;3.83;2.38;;;;;;;16.30;54.32;100262.41;5094800;28;20031;-58
2021/12/29 03:43:09;;;;;;;5.57;2.35;;;;;;;16.29;54.40;100269.69;5095383;28;20020;-59
2021/12/29 03:45:37;;;;;;;6.60;2.58;;;;;;;16.28;54.34;100269.84;5093946;28;20481;-57
2021/12/29 03:48:06;;;;;;;4.45;2.15;;;;;;;16.27;54.57;100269.00;5095419;28;20035;-58
2021/12/29 03:50:31;;;;;;;7.03;2.67;;;;;;;16.26;54.40;100283.56;5095332;28;20049;-58
2021/12/29 03:52:57;;;;;;;3.47;2.40;;;;;;;16.25;53.83;100281.00;5095114;28;20027;-59
2021/12/29 03:55:22;;;;;;;4.10;2.63;;;;;;;16.26;53.96;100282.72;5094967;28;20024;-58
2021/12/29 03:57:48;;;;;;;5.80;2.33;;;;;;;16.27;54.52;100284.41;5095302;28;20486;-59
2021/12/29 04:00:15;;;;;;;7.75;2.53;;;;;;;16.24;53.93;100285.59;5094947;28;20020;-58
2021/12/29 04:02:41;;;;;;;5.20;2.72;;;;;;;16.27;54.17;100295.22;5094850;28;20027;-58
2021/12/29 04:05:09;;;;;;;5.50;2.80;;;;;;;16.28;54.90;100296.88;5076589;28;20108;-58
2021/12/29 04:07:34;;;;;;;6.93;2.75;;;;;;;16.30;53.72;100297.56;5094837;28;20052;-59
2021/12/29 04:10:00;;;;;;;4.55;2.60;;;;;;;16.31;54.28;100297.38;5094965;28;20456;-58
2021/12/29 04:12:25;;;;;;;6.00;2.75;;;;;;;16.34;53.77;100306.97;5076408;28;20016;-59
2021/12/29 04:14:51;;;;;;;5.47;2.85;;;;;;;16.31;54.74;100305.47;5094885;28;20365;-58
2021/12/29 04:17:18;;;;;;;11.25;2.97;;;;;;;16.35;52.98;100324.88;5094760;28;20052;-58
2021/12/29 04:22:29;;;;;;;6.38;3.10;;;;;;;16.38;54.11;100324.53;5094653;28;20035;-58
2021/12/29 04:24:54;;;;;;;5.78;3.03;;;;;;;16.36;53.80;100310.34;5094940;28;20396;-58
2021/12/29 04:27:23;;;;;;;5.53;1.98;;;;;;;16.38;53.58;100312.88;5076249;28;20042;-58
2021/12/29 04:29:48;;;;;;;7.68;3.50;;;;;;;16.38;53.38;100313.72;5094848;28;20039;-58
2021/12/29 04:32:14;;;;;;;3.42;2.47;;;;;;;16.39;53.84;100322.69;5076513;28;20028;-58
2021/12/29 04:34:39;;;;;;;7.45;2.85;;;;;;;16.38;53.15;100326.38;5094356;28;20362;-58
2021/12/29 04:37:04;;;;;;;2.42;2.20;;;;;;;16.36;54.13;100328.44;5094276;28;20034;-58
2021/12/29 04:39:30;;;;;;;4.55;2.45;;;;;;;16.41;53.38;100335.00;5094292;28;20096;-58
2021/12/29 04:41:55;;;;;;;5.05;3.20;;;;;;;16.41;53.34;100335.00;5059494;28;20024;-58
2021/12/29 04:44:20;;;;;;;5.05;2.47;;;;;;;16.42;54.09;100336.66;5094215;28;20028;-58
2021/12/29 04:46:47;;;;;;;6.45;2.58;;;;;;;16.40;52.89;100338.72;5094211;28;20076;-59
2021/12/29 04:49:14;;;;;;;4.07;2.42;;;;;;;16.42;53.23;100342.06;5094114;28;20032;-58
2021/12/29 04:51:51;;;;;;;8.52;2.80;;;;;;;16.39;54.00;100342.41;5093919;28;20400;-58
2021/12/29 04:54:17;;;;;;;6.80;2.47;;;;;;;16.40;53.12;100352.22;5076691;28;20024;-58
2021/12/29 04:56:43;;;;;;;7.57;3.70;;;;;;;16.37;52.85;100349.88;5094111;28;20020;-58
2021/12/29 04:59:08;;;;;;;11.20;3.15;;;;;;;16.36;53.33;100358.19;5093783;28;20176;-58
2021/12/29 05:01:34;;;;;;;5.57;2.53;;;;;;;16.36;54.43;100359.00;5094199;28;20031;-58
2021/12/29 05:03:59;;;;;;;7.88;2.60;;;;;;;16.39;54.68;100368.63;5093893;28;20028;-58
2021/12/29 05:09:08;;;;;;;10.45;2.75;;;;;;;16.41;52.76;100361.19;5078511;28;20495;-58
2021/12/29 05:11:34;;;;;;;10.90;2.70;;;;;;;16.38;53.48;100359.69;5094058;28;20016;-58
2021/12/29 05:13:59;;;;;;;7.68;2.30;;;;;;;16.37;54.15;100351.72;5075736;28;20151;-58
2021/12/29 05:16:28;;;;;;;8.05;2.30;;;;;;;16.41;52.71;100367.44;5094276;28;20028;-58
2021/12/29 05:18:54;;;;;;;5.25;2.38;;;;;;;16.42;54.52;100368.25;5094095;28;20016;-58
2021/12/29 05:21:19;;;;;;;7.10;2.55;;;;;;;16.42;53.87;100377.22;5094051;28;20028;-58
2021/12/29 05:23:45;;;;;;;4.00;2.50;;;;;;;16.42;53.00;100374.50;5093771;28;20058;-58
2021/12/29 05:26:10;;;;;;;3.67;2.40;;;;;;;16.45;53.75;100371.44;5075935;28;20540;-58
2021/12/29 05:28:36;;;;;;;7.95;2.70;;;;;;;16.46;53.25;100364.19;5093533;28;20067;-59
2021/12/29 05:31:01;;;;;;;9.77;2.85;;;;;;;16.48;53.97;100372.94;5109753;28;20036;-59
2021/12/29 05:33:26;;;;;;;4.00;2.72;;;;;;;16.50;53.32;100366.34;5093931;28;20059;-59
2021/12/29 05:35:52;;;;;;;3.47;2.63;;;;;;;16.51;53.29;100373.44;5075678;28;20019;-58
2021/12/29 05:38:18;;;;;;;4.93;2.53;;;;;;;16.52;53.10;100385.09;5093914;28;20406;-58
2021/12/29 05:40:43;;;;;;;6.05;2.80;;;;;;;16.52;53.09;100383.25;5093806;28;20028;-59
2021/12/29 05:43:08;;;;;;;10.20;2.35;;;;;;;16.51;52.97;100384.25;5093570;28;20469;-59
2021/12/29 05:45:34;;;;;;;5.07;2.67;;;;;;;16.50;53.79;100390.66;5109166;28;20077;-58
2021/12/29 05:48:01;;;;;;;4.65;2.72;;;;;;;16.51;54.26;100402.34;5075585;28;20059;-59
2021/12/29 05:50:28;;;;;;;4.95;2.35;;;;;;;16.52;53.63;100404.88;5075748;28;20392;-58
2021/12/29 05:52:55;;;;;;;4.82;2.10;;;;;;;16.52;52.51;100404.88;5093610;28;20028;-58
2021/12/29 05:55:20;;;;;;;7.63;2.90;;;;;;;16.54;52.94;100405.56;5093598;28;20106;-58
2021/12/29 05:57:46;;;;;;;2.45;1.90;;;;;;;16.56;54.13;100411.63;5075810;28;20058;-58
2021/12/29 06:00:15;;;;;;;5.72;2.38;;;;;;;16.55;53.29;100404.56;5093629;28;20054;-58
2021/12/29 06:02:41;;;;;;;4.75;1.77;;;;;;;16.57;53.45;100405.22;5093311;28;20016;-59
2021/12/29 06:05:06;;;;;;;3.28;1.75;;;;;;;16.58;53.16;100404.19;5096090;28;20032;-58
2021/12/29 06:07:33;;;;;;;2.40;1.88;;;;;;;16.56;53.79;100403.53;5079350;28;20035;-59
2021/12/29 06:09:58;;;;;;;3.55;2.35;;;;;;;16.59;53.11;100408.56;5097218;28;20035;-59
2021/12/29 06:12:24;;;;;;;3.50;2.45;;;;;;;16.58;53.63;100409.59;5097657;28;20016;-59
2021/12/29 06:14:49;;;;;;;3.30;2.00;;;;;;;16.58;53.47;100398.78;5097055;28;20430;-59
2021/12/29 06:17:15;;;;;;;4.30;1.80;;;;;;;16.58;53.99;100406.88;5097146;28;20103;-58
2021/12/29 06:19:40;;;;;;;3.72;2.67;;;;;;;16.58;53.22;100412.28;5096928;28;20118;-59
2021/12/29 06:22:09;;;;;;;3.10;2.00;;;;;;;16.59;53.97;100402.31;5113212;28;20027;-59
2021/12/29 06:24:34;;;;;;;2.92;1.83;;;;;;;16.59;52.16;100413.97;5097020;28;20028;-58
2021/12/29 06:27:00;;;;;;;6.43;1.80;;;;;;;16.60;53.35;100410.28;5096833;28;20031;-58
2021/12/29 06:29:25;;;;;;;2.42;1.90;;;;;;;16.61;52.20;100417.34;5078455;28;20101;-59
2021/12/29 06:31:51;;;;;;;7.82;2.63;;;;;;;16.58;52.74;100420.41;5096808;28;20051;-58
2021/12/29 06:34:17;;;;;;;4.30;1.90;;;;;;;16.61;53.29;100427.34;5096443;28;20023;-59
2021/12/29 06:36:43;;;;;;;4.40;2.00;;;;;;;16.61;52.59;100433.56;5096675;28;20020;-58
2021/12/29 06:39:08;;;;;;;6.60;2.03;;;;;;;16.58;53.55;100439.31;5096707;28;20108;-58
2021/12/29 06:41:33;;;;;;;2.63;2.15;;;;;;;16.58;52.71;100436.63;5078386;28;20020;-58
2021/12/29 06:43:59;;;;;;;2.63;2.10;;;;;;;16.59;53.79;100430.22;5096312;28;20073;-59
2021/12/29 06:46:24;;;;;;;4.05;3.10;;;;;;;16.59;52.33;100438.31;5078229;28;20111;-59
2021/12/29 06:48:49;;;;;;;7.10;2.88;;;;;;;16.59;53.00;100432.91;5096249;28;20032;-58
2021/12/29 06:51:15;;;;;;;8.55;2.25;;;;;;;16.60;53.16;100431.91;5096496;28;20028;-58
2021/12/29 06:53:40;;;;;;;4.38;2.20;;;;;;;16.61;52.48;100438.16;5096398;28;20106;-59
2021/12/29 06:56:06;;;;;;;4.00;1.85;;;;;;;16.60;51.90;100448.13;5096272;28;20035;-58
2021/12/29 06:58:32;;;;;;;9.85;2.33;;;;;;;16.59;52.67;100451.00;5096426;28;20020;-59
2021/12/29 07:00:57;;;;;;;8.80;2.83;;;;;;;16.58;53.11;100455.56;5096032;28;20040;-58
2021/12/29 07:03:23;;;;;;;5.22;2.50;;;;;;;16.58;52.51;100460.97;5095972;28;20020;-59
2021/12/29 07:05:48;;;;;;;3.35;2.05;;;;;;;16.61;53.06;100466.03;5096130;28;20062;-58
2021/12/29 07:08:14;;;;;;;5.18;2.40;;;;;;;16.62;53.14;100459.59;5096087;28;20020;-59
2021/12/29 07:10:42;;;;;;;5.30;2.47;;;;;;;16.61;53.00;100455.19;5095683;28;20031;-58
2021/12/29 07:13:07;;;;;;;7.20;2.50;;;;;;;16.62;53.53;100462.31;5096496;28;20397;-58
2021/12/29 07:15:33;;;;;;;3.85;1.95;;;;;;;16.61;52.85;100468.72;5094967;28;20105;-60
2021/12/29 07:17:58;;;;;;;4.07;1.88;;;;;;;16.61;52.48;100476.84;5077468;28;20020;-59
2021/12/29 07:20:24;;;;;;;4.72;2.63;;;;;;;16.61;52.21;100471.44;5095862;28;20388;-58
2021/12/29 07:22:49;;;;;;;9.70;2.67;;;;;;;16.59;52.02;100478.88;5095700;28;20445;-58
2021/12/29 07:25:14;;;;;;;3.55;2.30;;;;;;;16.58;52.54;100471.78;5094290;28;20423;-58
2021/12/29 07:27:40;;;;;;;8.00;2.38;;;;;;;16.54;53.40;100475.88;5095481;28;20044;-58
2021/12/29 07:30:06;;;;;;;11.32;2.80;;;;;;;16.53;52.04;100479.59;5095654;28;20042;-59
2021/12/29 07:32:32;;;;;;;2.67;2.13;;;;;;;16.52;52.37;100480.59;5077620;28;20457;-59
2021/12/29 07:34:57;;;;;;;5.03;2.25;;;;;;;16.52;52.39;100483.28;5095893;28;20020;-58
2021/12/29 07:37:22;;;;;;;3.20;1.92;;;;;;;16.52;52.90;100490.56;5077459;28;20096;-58
2021/12/29 07:39:48;;;;;;;3.05;2.22;;;;;;;16.52;52.22;100482.44;5095534;28;20024;-58
2021/12/29 07:42:13;;;;;;;3.80;2.50;;;;;;;16.52;52.72;100483.28;5095254;28;20020;-59
2021/12/29 07:44:41;;;;;;;5.20;2.47;;;;;;;16.52;52.00;100485.16;5077693;28;20038;-58
2021/12/29 07:47:06;;;;;;;2.72;2.00;;;;;;;16.53;52.80;100493.09;5095552;28;20077;-59
2021/12/29 07:49:32;;;;;;;2.72;2.22;;;;;;;16.53;52.40;100495.81;5095110;28;20484;-59
2021/12/29 07:51:57;;;;;;;3.90;1.83;;;;;;;16.55;52.99;100506.47;5095284;28;20099;-59
2021/12/29 07:54:23;;;;;;;6.45;2.13;;;;;;;16.55;52.32;100510.03;5095033;28;20047;-58
2021/12/29 07:56:48;;;;;;;6.25;2.35;;;;;;;16.55;53.17;100510.03;5094956;28;20020;-59
2021/12/29 07:59:14;;;;;;;5.38;2.33;;;;;;;16.53;52.80;100517.44;5094840;28;20469;-59
2021/12/29 08:01:40;;;;;;;5.75;2.58;;;;;;;16.52;52.72;100514.91;5076760;28;20096;-59
2021/12/29 08:04:05;;;;;;;2.75;2.08;;;;;;;16.55;52.34;100518.13;5095114;28;20576;-58
2021/12/29 08:06:31;;;;;;;4.80;1.92;;;;;;;16.57;52.54;100517.94;5095089;28;20055;-58
2021/12/29 08:08:56;;;;;;;6.38;2.70;;;;;;;16.58;51.99;100517.75;5110529;28;20024;-58
2021/12/29 08:11:22;;;;;;;7.78;2.17;;;;;;;16.58;51.85;100512.34;5094838;28;20106;-58
2021/12/29 08:13:48;;;;;;;9.10;3.28;;;;;;;16.57;51.75;100507.97;5060395;28;20016;-58
2021/12/29 08:16:14;;;;;;;5.05;2.47;;;;;;;16.60;51.72;100518.44;5076940;28;20365;-58
2021/12/29 08:18:39;;;;;;;3.95;2.38;;;;;;;16.60;51.58;100523.00;5094795;28;20088;-58
2021/12/29 08:21:04;;;;;;;4.57;2.33;;;;;;;16.59;51.63;100527.56;5076524;28;20031;-59
2021/12/29 08:23:31;;;;;;;3.17;1.63;;;;;;;16.58;51.98;100525.03;5094494;28;20548;-58
2021/12/29 08:25:57;;;;;;;6.15;2.03;;;;;;;16.56;52.06;100517.09;5094793;28;20103;-58
2021/12/29 08:28:22;;;;;;;7.90;2.42;;;;;;;16.58;53.08;100514.22;5094402;28;20071;-58
2021/12/29 08:30:48;;;;;;;3.42;2.10;;;;;;;16.59;52.51;100515.91;5094799;28;20032;-58
2021/12/29 08:33:14;;;;;;;3.17;2.05;;;;;;;16.59;52.56;100518.59;5094859;28;20020;-58
2021/12/29 08:35:39;;;;;;;5.00;1.70;;;;;;;16.60;52.37;100528.41;5076369;28;20102;-59
2021/12/29 08:38:05;;;;;;;5.40;2.10;;;;;;;16.59;52.62;100530.28;5094253;28;20054;-59
2021/12/29 08:40:30;;;;;;;5.35;2.15;;;;;;;16.59;52.65;100534.81;5059664;28;20043;-58
2021/12/29 08:42:58;;;;;;;5.20;1.70;;;;;;;16.61;52.51;100530.94;5093799;28;20028;-58
2021/12/29 08:45:26;;;;;;;8.50;2.53;;;;;;;16.65;51.83;100543.09;5094200;28;20442;-58
2021/12/29 08:47:52;;;;;;;5.93;2.30;;;;;;;16.61;51.79;100530.94;5076415;28;20032;-59
2021/12/29 08:50:18;;;;;;;8.13;2.17;;;;;;;16.65;53.07;100537.69;5094204;28;20020;-59
2021/12/29 08:52:44;;;;;;;4.45;2.20;;;;;;;16.67;53.07;100538.34;5076194;28;20496;-58
2021/12/29 08:55:11;;;;;;;4.10;2.25;;;;;;;16.69;52.44;100530.91;5094169;28;20032;-58
2021/12/29 08:57:36;;;;;;;9.18;2.97;;;;;;;16.72;52.47;100532.44;5094363;28;20028;-58
2021/12/29 09:00:05;;;;;;;3.60;1.73;;;;;;;16.74;51.93;100520.41;5094781;28;20129;-59
2021/12/29 09:02:30;;;;;;;8.25;2.22;;;;;;;16.78;51.51;100521.72;5094298;28;20461;-58
2021/12/29 09:04:55;;;;;;;7.10;2.10;;;;;;;16.80;51.90;100519.72;5094178;28;20032;-59
2021/12/29 09:07:21;;;;;;;10.65;3.80;;;;;;;16.84;51.18;100515.59;5094045;28;20026;-59
2021/12/29 09:09:46;;;;;;;10.73;5.75;;;;;;;16.87;52.37;100517.13;5093925;28;20022;-58
2021/12/29 09:12:12;;;;;;;10.35;2.88;;;;;;;16.88;51.92;100525.06;5094084;28;20077;-59
2021/12/29 09:14:37;;;;;;;20.95;6.75;;;;;;;16.95;51.99;100527.03;5075851;28;20361;-58
2021/12/29 09:17:03;;;;;;;7.65;3.00;;;;;;;16.97;51.60;100520.47;5093853;28;20034;-58
2021/12/29 09:19:33;;;;;;;14.27;2.83;;;;;;;17.00;51.28;100519.25;5094315;28;20138;-58
2021/12/29 09:21:58;;;;;;;6.97;2.03;;;;;;;16.99;51.16;100506.75;5094217;28;20488;-58
2021/12/29 09:24:23;;;;;;;3.38;2.10;;;;;;;17.00;51.04;100511.97;5109677;28;20020;-59
2021/12/29 09:26:49;;;;;;;18.73;6.88;;;;;;;17.01;51.03;100505.53;5093802;28;20489;-59
2021/12/29 09:29:14;;;;;;;4.22;2.25;;;;;;;17.02;52.18;100512.66;5093222;28;20511;-58
2021/12/29 09:31:40;;;;;;;5.00;1.85;;;;;;;17.04;52.05;100515.16;5093905;28;20390;-59
2021/12/29 09:34:06;;;;;;;7.72;2.47;;;;;;;17.04;51.65;100523.28;5075444;28;20016;-58
2021/12/29 09:36:32;;;;;;;19.70;5.55;;;;;;;17.02;51.48;100519.91;5094036;28;20512;-59
2021/12/29 09:38:57;;;;;;;15.77;5.10;;;;;;;17.06;52.45;100518.53;5075412;28;20039;-59
2021/12/29 09:41:23;;;;;;;12.93;6.05;;;;;;;17.06;51.48;100510.41;5097457;28;20056;-59
2021/12/29 09:43:48;;;;;;;6.05;1.83;;;;;;;17.06;51.53;100519.38;5097609;28;20020;-59
2021/12/29 09:46:14;;;;;;;4.85;1.80;;;;;;;17.07;50.86;100522.91;5097368;28;20039;-60
2021/12/29 09:48:40;;;;;;;5.80;2.08;;;;;;;17.07;51.05;100522.91;5079223;28;20035;-59
2021/12/29 09:51:08;;;;;;;8.93;2.53;;;;;;;17.06;51.43;100518.53;5097697;28;20028;-59
2021/12/29 09:53:34;;;;;;;6.00;1.83;;;;;;;17.05;51.42;100516.84;5097621;28;20024;-58
2021/12/29 09:56:00;;;;;;;4.40;1.67;;;;;;;17.01;51.89;100518.22;5079268;28;20080;-59
2021/12/29 09:58:25;;;;;;;5.85;2.13;;;;;;;17.02;51.03;100517.22;5079272;28;20035;-59
2021/12/29 10:00:57;;;;;;;2.75;1.55;;;;;;;17.06;51.60;100523.94;5079055;28;20028;-59
2021/12/29 10:03:24;;;;;;;8.95;1.88;;;;;;;17.06;52.44;100515.81;5097128;28;20024;-58
2021/12/29 10:05:52;;;;;;;5.50;1.85;;;;;;;17.05;51.92;100511.44;5097002;28;20114;-59
2021/12/29 10:08:19;;;;;;;4.53;1.90;;;;;;;17.06;51.82;100515.81;5096707;28;20024;-59
2021/12/29 10:10:48;;;;;;;5.60;2.05;;;;;;;17.08;51.04;100503.81;5097191;28;20027;-59
2021/12/29 10:13:14;;;;;;;6.20;2.17;;;;;;;17.10;50.79;100501.75;5097281;28;20051;-59
2021/12/29 10:15:43;;;;;;;6.80;1.95;;;;;;;17.13;51.35;100492.44;5097212;28;20063;-59
2021/12/29 10:18:13;;;;;;;7.88;2.00;;;;;;;17.16;50.88;100481.25;5096788;28;20388;-59
2021/12/29 10:20:48;;;;;;;5.80;1.90;;;;;;;17.24;51.59;100489.31;5096875;28;20544;-59
2021/12/29 10:23:21;;;;;;;2.92;1.65;;;;;;;17.40;50.60;100487.31;5096516;28;20085;-59
2021/12/29 10:25:47;;;;;;;7.47;2.10;;;;;;;17.64;51.19;100475.50;5096706;28;20024;-59
2021/12/29 10:28:29;;;;;;;6.35;1.70;;;;;;;17.91;50.81;100488.44;5078616;28;20077;-59
2021/12/29 10:31:07;;;;;;;5.18;1.52;;;;;;;18.08;49.61;100474.69;5096641;28;20047;-59
2021/12/29 10:33:42;;;;;;;5.70;1.50;;;;;;;18.21;50.54;100456.75;5097119;28;20016;-59
2021/12/29 10:36:22;;;;;;;3.83;1.52;;;;;;;18.23;50.63;100470.13;5096694;28;20134;-58
2021/12/29 10:38:56;;;;;;;6.65;1.67;;;;;;;18.15;50.35;100471.03;5097015;28;20102;-59
2021/12/29 10:41:21;;;;;;;6.57;1.70;;;;;;;18.15;50.28;100478.31;5078561;28;20028;-59
2021/12/29 10:43:53;;;;;;;5.72;1.45;;;;;;;18.10;50.59;100491.59;5096658;28;20465;-59
2021/12/29 10:46:20;;;;;;;5.28;1.67;;;;;;;18.08;50.46;100480.13;5096657;28;20440;-59
2021/12/29 10:48:50;;;;;;;1.85;1.17;;;;;;;18.08;50.58;100488.25;5078484;28;20047;-58
2021/12/29 10:51:18;;;;;;;7.63;1.50;;;;;;;18.06;50.58;100490.31;5096588;28;20030;-59
2021/12/29 10:53:44;;;;;;;8.68;2.00;;;;;;;18.02;50.99;100479.84;5096599;28;20073;-58
2021/12/29 10:56:24;;;;;;;3.67;1.60;;;;;;;17.96;50.02;100480.56;5096691;28;20028;-58
2021/12/29 10:58:50;;;;;;;4.80;1.48;;;;;;;17.89;50.63;100470.66;5096403;28;20113;-58
2021/12/29 11:01:16;;;;;;;6.05;1.80;;;;;;;17.90;50.39;100475.88;5096457;28;20492;-59
2021/12/29 11:03:47;;;;;;;6.28;1.80;;;;;;;17.83;50.91;100469.53;5096458;28;20111;-59
2021/12/29 11:06:16;;;;;;;8.95;2.30;;;;;;;17.78;51.32;100480.06;5096833;28;20063;-59
2021/12/29 11:08:57;;;;;;;7.97;1.75;;;;;;;17.76;50.69;100490.25;5077733;28;20472;-59
2021/12/29 11:11:33;;;;;;;3.30;1.65;;;;;;;17.72;50.61;100497.09;5078237;28;20024;-59
2021/12/29 11:14:31;;;;;;;5.65;1.27;;;;;;;17.72;51.17;100496.22;5096123;28;20024;-59
2021/12/29 11:17:14;;;;;;;6.78;1.83;;;;;;;17.67;51.27;100480.50;5084615;28;20441;-58
2021/12/29 11:19:48;;;;;;;8.55;1.70;;;;;;;17.65;50.64;100471.72;5077610;28;20032;-59
2021/12/29 11:22:17;;;;;;;4.07;1.10;;;;;;;17.61;50.22;100464.16;5060788;28;20035;-59
2021/12/29 11:24:44;;;;;;;4.90;1.70;;;;;;;17.58;51.03;100481.63;5096027;28;20468;-59
2021/12/29 11:27:15;;;;;;;4.97;1.42;;;;;;;17.59;50.43;100468.94;5077770;28;20024;-59
2021/12/29 11:30:03;;;;;;;5.15;1.40;;;;;;;17.61;50.40;100475.00;5096015;28;20185;-59